Time;durP1;ratioP1;P1;durP2;ratioP2;P2;SDS_P1;SDS_P2;PMS_P1;PMS_P2;Temp;Humidity;BMP_temperature;BMP_pressure;BME280_temperature;BME280_humidity;BME280_pressure;Samples;Min_cycle;Max_cycle;Signal;HPM_P1;HPM_P2
2023/08/23 00:02:24;;;;;;;5.10;3.10;;;;;;;;;;4998190;28;20244;-81
2023/08/23 00:04:51;;;;;;;4.27;3.10;;;;;;;;;;5014167;28;20191;-80
2023/08/23 00:07:17;;;;;;;4.57;2.90;;;;;;;;;;5013995;28;20200;-80
2023/08/23 00:09:46;;;;;;;6.47;2.87;;;;;;;;;;5013884;28;20264;-81
2023/08/23 00:12:12;;;;;;;8.07;2.90;;;;;;;;;;4998232;28;20213;-80
2023/08/23 00:14:38;;;;;;;6.90;3.20;;;;;;;;;;5013778;28;20173;-80
2023/08/23 00:17:05;;;;;;;4.57;2.83;;;;;;;;;;5013977;28;20179;-82
2023/08/23 00:19:31;;;;;;;5.40;3.10;;;;;;;;;;4997649;28;20189;-81
2023/08/23 00:21:57;;;;;;;5.97;3.10;;;;;;;;;;4997613;28;20181;-80
2023/08/23 00:24:23;;;;;;;6.50;2.90;;;;;;;;;;4997692;28;20189;-80
2023/08/23 00:26:49;;;;;;;5.63;3.10;;;;;;;;;;4997477;28;20285;-80
2023/08/23 00:29:17;;;;;;;4.63;3.10;;;;;;;;;;5013840;28;20204;-81
2023/08/23 00:31:43;;;;;;;3.63;2.70;;;;;;;;;;5013613;28;20209;-80
2023/08/23 00:34:09;;;;;;;5.37;3.43;;;;;;;;;;4997421;28;20260;-81
2023/08/23 00:36:36;;;;;;;5.00;3.30;;;;;;;;;;4997505;28;20284;-80
2023/08/23 00:39:02;;;;;;;6.33;3.50;;;;;;;;;;4997343;28;20196;-80
2023/08/23 00:41:28;;;;;;;6.47;3.27;;;;;;;;;;5013638;28;20189;-80
2023/08/23 00:43:54;;;;;;;5.60;2.90;;;;;;;;;;5013583;28;20233;-81
2023/08/23 00:46:20;;;;;;;3.80;3.07;;;;;;;;;;4997099;28;20220;-80
2023/08/23 00:48:47;;;;;;;5.47;3.17;;;;;;;;;;4997202;28;20185;-81
2023/08/23 00:51:13;;;;;;;5.93;3.20;;;;;;;;;;4997247;28;20213;-80
2023/08/23 00:53:39;;;;;;;3.60;2.93;;;;;;;;;;5013291;28;20198;-80
2023/08/23 00:56:06;;;;;;;5.23;2.90;;;;;;;;;;5013493;28;20211;-80
2023/08/23 00:58:33;;;;;;;6.97;2.90;;;;;;;;;;4997026;28;20185;-80
2023/08/23 01:01:00;;;;;;;5.17;3.33;;;;;;;;;;5013299;28;20185;-80
2023/08/23 01:03:26;;;;;;;5.53;3.33;;;;;;;;;;5013357;28;20212;-80
2023/08/23 01:06:11;;;;;;;4.57;3.20;;;;;;;;;;5013254;28;20185;-80
2023/08/23 01:08:56;;;;;;;7.73;3.50;;;;;;;;;;5013190;28;20192;-80
2023/08/23 01:11:33;;;;;;;5.10;3.10;;;;;;;;;;5013055;28;20204;-81
2023/08/23 01:14:15;;;;;;;4.30;3.43;;;;;;;;;;5013092;28;20184;-80
2023/08/23 01:16:44;;;;;;;6.87;3.07;;;;;;;;;;5013146;28;20188;-80
2023/08/23 01:19:17;;;;;;;6.27;3.33;;;;;;;;;;5013416;28;20172;-80
2023/08/23 01:21:48;;;;;;;6.63;3.63;;;;;;;;;;5012850;28;20187;-80
2023/08/23 01:24:14;;;;;;;3.90;3.50;;;;;;;;;;5013054;28;20182;-80
2023/08/23 01:26:40;;;;;;;6.30;3.80;;;;;;;;;;5012332;28;20181;-80
2023/08/23 01:29:07;;;;;;;5.70;3.60;;;;;;;;;;4996443;28;20276;-80
2023/08/23 01:31:38;;;;;;;6.47;3.60;;;;;;;;;;4996669;28;20298;-80
2023/08/23 01:34:09;;;;;;;4.60;3.57;;;;;;;;;;5012755;28;20184;-80
2023/08/23 01:36:37;;;;;;;5.30;3.23;;;;;;;;;;5012821;28;20215;-80
2023/08/23 01:39:04;;;;;;;3.70;3.00;;;;;;;;;;5012814;28;20181;-80
2023/08/23 01:41:31;;;;;;;5.77;3.13;;;;;;;;;;5012939;28;20276;-80
2023/08/23 01:43:57;;;;;;;6.57;3.40;;;;;;;;;;4996572;28;20259;-80
2023/08/23 01:46:23;;;;;;;4.97;3.20;;;;;;;;;;4996494;28;20190;-80
2023/08/23 01:48:49;;;;;;;3.50;2.93;;;;;;;;;;5012738;28;20271;-80
2023/08/23 01:51:18;;;;;;;4.60;2.83;;;;;;;;;;4996558;28;20213;-81
2023/08/23 01:53:44;;;;;;;3.73;3.03;;;;;;;;;;4996307;28;20201;-80
2023/08/23 01:56:10;;;;;;;4.83;3.70;;;;;;;;;;5012381;28;20181;-80
2023/08/23 01:58:36;;;;;;;4.83;3.70;;;;;;;;;;5012627;28;20173;-80
2023/08/23 02:01:02;;;;;;;4.90;3.73;;;;;;;;;;5012700;28;20182;-80
2023/08/23 02:03:28;;;;;;;5.10;3.93;;;;;;;;;;4996625;28;20186;-80
2023/08/23 02:05:55;;;;;;;6.37;3.80;;;;;;;;;;4996354;28;20182;-80
2023/08/23 02:08:21;;;;;;;5.33;4.10;;;;;;;;;;4996575;28;20190;-80
2023/08/23 02:10:47;;;;;;;7.97;5.47;;;;;;;;;;4996242;28;20219;-80
2023/08/23 02:13:13;;;;;;;11.07;7.10;;;;;;;;;;4996471;28;20186;-80
2023/08/23 02:15:39;;;;;;;14.33;7.90;;;;;;;;;;5012603;28;20211;-80
2023/08/23 02:18:08;;;;;;;15.83;8.13;;;;;;;;;;4996160;28;20249;-80
2023/08/23 02:20:34;;;;;;;12.07;7.27;;;;;;;;;;5012652;28;20197;-80
2023/08/23 02:23:00;;;;;;;11.10;6.30;;;;;;;;;;5012150;28;20186;-80
2023/08/23 02:25:26;;;;;;;7.00;5.30;;;;;;;;;;4996130;28;20181;-81
2023/08/23 02:27:52;;;;;;;6.87;5.20;;;;;;;;;;5012388;28;20212;-81
2023/08/23 02:30:18;;;;;;;6.07;5.20;;;;;;;;;;5012455;28;20181;-81
2023/08/23 02:32:44;;;;;;;7.93;5.20;;;;;;;;;;5012485;28;20241;-81
2023/08/23 02:35:10;;;;;;;7.57;5.40;;;;;;;;;;5012253;28;20209;-81
2023/08/23 02:37:36;;;;;;;7.57;4.63;;;;;;;;;;4998151;28;20181;-81
2023/08/23 02:40:03;;;;;;;7.10;4.70;;;;;;;;;;5015825;28;20177;-81
2023/08/23 02:42:29;;;;;;;8.70;4.93;;;;;;;;;;4999698;28;20283;-81
2023/08/23 02:44:55;;;;;;;5.77;4.70;;;;;;;;;;4999698;28;20196;-81
2023/08/23 02:47:21;;;;;;;7.13;4.40;;;;;;;;;;5015847;28;20182;-81
2023/08/23 02:49:47;;;;;;;5.20;4.70;;;;;;;;;;4999602;28;20196;-81
2023/08/23 02:52:13;;;;;;;5.97;4.03;;;;;;;;;;4999112;28;20221;-81
2023/08/23 02:54:39;;;;;;;6.90;4.50;;;;;;;;;;5015873;28;20181;-81
2023/08/23 02:57:05;;;;;;;6.97;5.00;;;;;;;;;;4998986;28;20203;-81
2023/08/23 02:59:31;;;;;;;7.57;4.53;;;;;;;;;;4999730;28;20220;-81
2023/08/23 03:01:58;;;;;;;5.93;4.60;;;;;;;;;;5015587;28;20181;-81
2023/08/23 03:04:24;;;;;;;8.90;4.83;;;;;;;;;;4999384;28;20236;-81
2023/08/23 03:06:50;;;;;;;5.63;4.20;;;;;;;;;;5015472;28;20368;-81
2023/08/23 03:09:18;;;;;;;5.67;4.40;;;;;;;;;;4999444;28;20189;-81
2023/08/23 03:11:44;;;;;;;5.93;4.70;;;;;;;;;;4999348;28;20240;-81
2023/08/23 03:14:10;;;;;;;4.87;4.00;;;;;;;;;;4999199;28;20228;-81
2023/08/23 03:16:36;;;;;;;6.33;4.00;;;;;;;;;;5015324;28;20177;-81
2023/08/23 03:19:02;;;;;;;7.93;4.40;;;;;;;;;;4998857;28;20193;-81
2023/08/23 03:21:28;;;;;;;4.80;3.93;;;;;;;;;;4998930;28;20189;-81
2023/08/23 03:23:54;;;;;;;7.43;4.00;;;;;;;;;;5015174;28;20276;-81
2023/08/23 03:26:20;;;;;;;6.10;4.00;;;;;;;;;;4998980;28;20181;-81
2023/08/23 03:28:49;;;;;;;4.43;4.03;;;;;;;;;;4998623;28;20185;-81
2023/08/23 03:31:14;;;;;;;6.87;4.00;;;;;;;;;;5014902;28;20239;-81
2023/08/23 03:33:40;;;;;;;4.93;4.00;;;;;;;;;;4998743;28;20177;-81
2023/08/23 03:36:07;;;;;;;4.60;4.10;;;;;;;;;;4998390;28;20188;-81
2023/08/23 03:38:33;;;;;;;6.07;3.83;;;;;;;;;;5014527;28;20181;-81
2023/08/23 03:40:59;;;;;;;5.10;3.70;;;;;;;;;;4998573;28;20185;-81
2023/08/23 03:43:25;;;;;;;6.70;4.13;;;;;;;;;;5014295;28;20237;-81
2023/08/23 03:45:51;;;;;;;3.93;3.60;;;;;;;;;;4998276;28;20246;-81
2023/08/23 03:48:17;;;;;;;4.77;4.20;;;;;;;;;;5013498;28;20178;-81
2023/08/23 03:50:43;;;;;;;4.97;3.90;;;;;;;;;;5014183;28;20208;-81
2023/08/23 03:53:09;;;;;;;6.13;3.80;;;;;;;;;;5014240;28;20194;-81
2023/08/23 03:55:36;;;;;;;4.37;3.67;;;;;;;;;;5014209;28;20268;-81
2023/08/23 03:58:03;;;;;;;4.40;4.00;;;;;;;;;;5014340;28;20177;-81
2023/08/23 04:00:29;;;;;;;6.47;4.10;;;;;;;;;;5014434;28;20181;-81
2023/08/23 04:02:55;;;;;;;5.40;3.93;;;;;;;;;;4998122;28;20228;-81
2023/08/23 04:05:21;;;;;;;5.50;3.60;;;;;;;;;;5014073;28;20212;-81
2023/08/23 04:07:47;;;;;;;5.13;3.07;;;;;;;;;;4998225;28;20227;-81
2023/08/23 04:10:13;;;;;;;7.30;3.60;;;;;;;;;;4998160;28;20188;-81
2023/08/23 04:12:39;;;;;;;4.23;3.10;;;;;;;;;;5014145;28;20181;-81
2023/08/23 04:15:06;;;;;;;5.33;3.30;;;;;;;;;;5014100;28;20177;-81
2023/08/23 04:17:32;;;;;;;4.57;3.33;;;;;;;;;;4997912;28;20181;-81
2023/08/23 04:19:58;;;;;;;4.57;3.10;;;;;;;;;;5013773;28;20177;-81
2023/08/23 04:22:24;;;;;;;4.70;3.00;;;;;;;;;;4997616;28;20277;-81
2023/08/23 04:24:51;;;;;;;3.33;2.67;;;;;;;;;;4997665;28;20189;-81
2023/08/23 04:27:19;;;;;;;3.93;2.77;;;;;;;;;;4997615;28;20236;-81
2023/08/23 04:29:45;;;;;;;3.73;2.90;;;;;;;;;;4997962;28;20193;-81
2023/08/23 04:32:12;;;;;;;4.87;2.80;;;;;;;;;;4997603;28;20400;-81
2023/08/23 04:34:41;;;;;;;5.03;2.73;;;;;;;;;;4997754;28;20184;-81
2023/08/23 04:37:07;;;;;;;4.37;2.47;;;;;;;;;;5013864;28;20232;-81
2023/08/23 04:39:34;;;;;;;3.03;2.60;;;;;;;;;;5013687;28;20239;-81
2023/08/23 04:42:00;;;;;;;3.90;2.67;;;;;;;;;;4997490;28;20185;-81
2023/08/23 04:44:27;;;;;;;3.40;2.60;;;;;;;;;;4996970;28;20243;-81
2023/08/23 04:46:53;;;;;;;4.70;3.23;;;;;;;;;;5013628;28;20239;-81
2023/08/23 04:49:19;;;;;;;4.97;2.83;;;;;;;;;;4997604;28;20192;-81
2023/08/23 04:51:48;;;;;;;3.07;2.77;;;;;;;;;;4997059;28;20213;-81
2023/08/23 04:54:14;;;;;;;3.63;3.00;;;;;;;;;;4997654;28;20181;-81
2023/08/23 04:56:40;;;;;;;6.43;3.33;;;;;;;;;;5013506;28;20177;-81
2023/08/23 04:59:06;;;;;;;4.87;3.57;;;;;;;;;;4997158;28;20192;-81
2023/08/23 05:01:32;;;;;;;5.30;3.20;;;;;;;;;;5013113;28;20177;-81
2023/08/23 05:03:58;;;;;;;3.50;3.13;;;;;;;;;;4997311;28;20184;-81
2023/08/23 05:06:24;;;;;;;3.80;2.90;;;;;;;;;;4996895;28;20268;-81
2023/08/23 05:08:50;;;;;;;5.00;3.33;;;;;;;;;;5013282;28;20239;-81
2023/08/23 05:11:16;;;;;;;5.60;3.83;;;;;;;;;;4996787;28;20223;-81
2023/08/23 05:13:42;;;;;;;4.43;3.60;;;;;;;;;;4997096;28;20190;-81
2023/08/23 05:16:08;;;;;;;4.50;3.57;;;;;;;;;;5013174;28;20177;-81
2023/08/23 05:18:34;;;;;;;4.67;3.37;;;;;;;;;;4997024;28;20184;-81
2023/08/23 05:21:02;;;;;;;5.37;3.60;;;;;;;;;;4997410;28;20185;-81
2023/08/23 05:23:28;;;;;;;4.53;3.60;;;;;;;;;;4997133;28;20192;-81
2023/08/23 05:25:54;;;;;;;7.13;3.90;;;;;;;;;;5013249;28;20178;-81
2023/08/23 05:28:21;;;;;;;9.17;4.67;;;;;;;;;;5013245;28;20185;-81
2023/08/23 05:30:47;;;;;;;13.03;4.83;;;;;;;;;;5013066;28;20209;-81
2023/08/23 05:33:13;;;;;;;6.77;4.20;;;;;;;;;;4996520;28;20255;-80
2023/08/23 05:35:40;;;;;;;8.23;4.30;;;;;;;;;;4996677;28;20186;-81
2023/08/23 05:38:07;;;;;;;4.60;4.13;;;;;;;;;;5012790;28;20181;-81
2023/08/23 05:40:36;;;;;;;5.33;4.33;;;;;;;;;;4996546;28;20189;-81
2023/08/23 05:43:02;;;;;;;5.80;4.50;;;;;;;;;;4996935;28;20237;-81
2023/08/23 05:45:28;;;;;;;5.57;4.83;;;;;;;;;;5012739;28;20205;-81
2023/08/23 05:47:54;;;;;;;6.97;5.10;;;;;;;;;;5012815;28;20180;-80
2023/08/23 05:50:21;;;;;;;5.00;4.50;;;;;;;;;;4996602;28;20204;-81
2023/08/23 05:52:47;;;;;;;5.07;4.67;;;;;;;;;;4996555;28;20201;-81
2023/08/23 05:55:13;;;;;;;5.80;5.20;;;;;;;;;;5012775;28;20180;-81
2023/08/23 05:57:42;;;;;;;7.87;5.17;;;;;;;;;;5012548;28;20178;-81
2023/08/23 06:00:09;;;;;;;6.20;5.60;;;;;;;;;;5012815;28;20177;-81
2023/08/23 06:02:35;;;;;;;7.70;5.33;;;;;;;;;;5012842;28;20181;-81
2023/08/23 06:05:13;;;;;;;6.53;5.57;;;;;;;;;;5013058;28;20191;-80
2023/08/23 06:07:39;;;;;;;8.47;5.60;;;;;;;;;;5012645;28;20188;-81
2023/08/23 06:10:06;;;;;;;8.67;6.63;;;;;;;;;;5012561;28;20189;-80
2023/08/23 06:12:32;;;;;;;9.90;7.37;;;;;;;;;;4998473;28;20251;-81
2023/08/23 06:14:58;;;;;;;9.63;7.03;;;;;;;;;;5000351;28;20185;-80
2023/08/23 06:17:26;;;;;;;8.70;7.87;;;;;;;;;;5016382;28;20177;-80
2023/08/23 06:19:52;;;;;;;10.93;8.33;;;;;;;;;;5000472;28;20185;-80
2023/08/23 06:22:19;;;;;;;9.70;8.20;;;;;;;;;;5016488;28;20227;-80
2023/08/23 06:24:45;;;;;;;12.20;8.80;;;;;;;;;;5000181;28;20200;-80
2023/08/23 06:27:11;;;;;;;12.40;9.30;;;;;;;;;;5016156;28;20185;-80
2023/08/23 06:29:41;;;;;;;11.93;9.23;;;;;;;;;;5016047;28;20189;-80
2023/08/23 06:32:10;;;;;;;13.13;9.30;;;;;;;;;;5016001;28;20233;-81
2023/08/23 06:34:36;;;;;;;13.13;9.17;;;;;;;;;;5016023;28;20196;-81
2023/08/23 06:37:02;;;;;;;13.80;9.43;;;;;;;;;;5016017;28;20184;-81
2023/08/23 06:39:31;;;;;;;10.13;8.57;;;;;;;;;;5015747;28;20177;-81
2023/08/23 06:41:59;;;;;;;10.30;9.17;;;;;;;;;;5015995;28;20185;-81
2023/08/23 06:44:25;;;;;;;18.17;13.60;;;;;;;;;;5015755;28;20233;-81
2023/08/23 06:46:54;;;;;;;15.13;12.20;;;;;;;;;;5016018;28;20224;-81
2023/08/23 06:49:20;;;;;;;14.97;11.90;;;;;;;;;;5015837;28;20189;-81
2023/08/23 06:51:46;;;;;;;17.37;13.20;;;;;;;;;;4999404;28;20240;-81
2023/08/23 06:54:14;;;;;;;13.13;10.77;;;;;;;;;;4999423;28;20185;-81
2023/08/23 06:56:40;;;;;;;15.27;11.23;;;;;;;;;;5015539;28;20178;-81
2023/08/23 06:59:06;;;;;;;13.57;11.03;;;;;;;;;;4999349;28;20272;-81
2023/08/23 07:01:33;;;;;;;13.60;10.10;;;;;;;;;;5015529;28;20243;-81
2023/08/23 07:03:59;;;;;;;13.57;10.20;;;;;;;;;;4999316;28;20182;-81
2023/08/23 07:06:25;;;;;;;16.20;10.37;;;;;;;;;;5015257;28;20181;-81
2023/08/23 07:08:51;;;;;;;15.27;10.30;;;;;;;;;;5015424;28;20240;-81
2023/08/23 07:11:17;;;;;;;11.53;9.80;;;;;;;;;;5015147;28;20232;-81
2023/08/23 07:13:43;;;;;;;16.40;10.67;;;;;;;;;;5015313;28;20195;-81
2023/08/23 07:16:09;;;;;;;14.63;10.53;;;;;;;;;;4999029;28;20212;-81
2023/08/23 07:18:35;;;;;;;13.67;10.80;;;;;;;;;;5015191;28;20204;-81
2023/08/23 07:21:03;;;;;;;12.17;9.77;;;;;;;;;;4998826;28;20185;-81
2023/08/23 07:23:29;;;;;;;12.93;8.83;;;;;;;;;;5014299;28;20268;-81
2023/08/23 07:25:55;;;;;;;9.80;8.80;;;;;;;;;;5015300;28;20248;-81
2023/08/23 07:28:21;;;;;;;11.47;9.07;;;;;;;;;;4999039;28;20193;-81
2023/08/23 07:30:56;;;;;;;11.93;8.80;;;;;;;;;;4998495;28;20213;-81
2023/08/23 07:33:23;;;;;;;13.23;9.53;;;;;;;;;;5014891;28;20250;-81
2023/08/23 07:35:54;;;;;;;11.20;9.53;;;;;;;;;;5014838;28;20181;-81
2023/08/23 07:38:21;;;;;;;11.07;9.97;;;;;;;;;;5015024;28;20235;-81
2023/08/23 07:40:47;;;;;;;11.40;9.83;;;;;;;;;;4998339;28;20193;-83
2023/08/23 07:43:13;;;;;;;11.33;10.07;;;;;;;;;;4998260;28;20316;-84
2023/08/23 07:45:39;;;;;;;13.90;10.40;;;;;;;;;;4998330;28;20185;-84
2023/08/23 07:48:05;;;;;;;12.37;9.87;;;;;;;;;;5014571;28;20181;-84
2023/08/23 07:50:33;;;;;;;12.17;10.90;;;;;;;;;;4998442;28;20239;-83
2023/08/23 07:52:59;;;;;;;12.40;10.10;;;;;;;;;;5014382;28;20208;-84
2023/08/23 07:55:25;;;;;;;11.57;9.60;;;;;;;;;;5014654;28;20181;-84
2023/08/23 07:57:51;;;;;;;12.67;10.00;;;;;;;;;;4998292;28;20204;-85
2023/08/23 08:00:20;;;;;;;11.90;9.73;;;;;;;;;;4998372;28;20192;-84
2023/08/23 08:02:46;;;;;;;10.87;9.77;;;;;;;;;;5014426;28;20181;-84
2023/08/23 08:05:12;;;;;;;10.23;8.03;;;;;;;;;;5014370;28;20169;-84
2023/08/23 08:07:38;;;;;;;9.23;6.00;;;;;;;;;;5014507;28;20178;-84
2023/08/23 08:10:05;;;;;;;8.73;6.70;;;;;;;;;;4997985;28;20193;-84
2023/08/23 08:12:31;;;;;;;9.27;7.43;;;;;;;;;;4998181;28;20217;-84
2023/08/23 08:14:59;;;;;;;12.03;7.83;;;;;;;;;;5014301;28;20180;-84
2023/08/23 08:17:26;;;;;;;9.47;7.70;;;;;;;;;;4998110;28;20231;-84
2023/08/23 08:19:52;;;;;;;12.00;7.80;;;;;;;;;;5014418;28;20181;-85
2023/08/23 08:22:18;;;;;;;9.03;6.83;;;;;;;;;;5013801;28;20186;-84
2023/08/23 08:24:44;;;;;;;8.00;6.80;;;;;;;;;;4997732;28;20192;-84
2023/08/23 08:27:12;;;;;;;9.70;7.37;;;;;;;;;;4996786;28;20423;-84
2023/08/23 08:29:38;;;;;;;9.67;6.80;;;;;;;;;;5013363;28;20469;-84
2023/08/23 08:32:04;;;;;;;11.63;6.17;;;;;;;;;;4997527;28;20233;-84
2023/08/23 08:34:30;;;;;;;12.50;7.03;;;;;;;;;;4997435;28;20211;-84
2023/08/23 08:36:56;;;;;;;8.80;6.32;;;;;;;;;;4997430;28;20508;-84
2023/08/23 08:39:22;;;;;;;8.68;6.40;;;;;;;;;;5013269;28;20415;-81
2023/08/23 08:41:49;;;;;;;9.00;5.57;;;;;;;;;;5012871;28;20399;-82
2023/08/23 08:44:15;;;;;;;6.00;4.40;;;;;;;;;;5013387;28;20231;-82
2023/08/23 08:46:41;;;;;;;8.00;4.90;;;;;;;;;;4996506;28;20426;-81
2023/08/23 08:49:08;;;;;;;5.40;4.77;;;;;;;;;;5013494;28;20228;-82
2023/08/23 08:51:36;;;;;;;5.67;4.30;;;;;;;;;;4997053;28;20268;-82
2023/08/23 08:54:02;;;;;;;8.00;4.53;;;;;;;;;;5013546;28;20177;-82
2023/08/23 08:56:29;;;;;;;5.80;3.67;;;;;;;;;;5013360;28;20174;-82
2023/08/23 08:58:55;;;;;;;7.38;4.80;;;;;;;;;;4997054;28;20189;-82
2023/08/23 09:01:22;;;;;;;6.13;3.97;;;;;;;;;;5013521;28;20183;-82
2023/08/23 09:03:49;;;;;;;4.73;3.33;;;;;;;;;;5013506;28;20185;-85
2023/08/23 09:06:15;;;;;;;7.35;4.30;;;;;;;;;;5013199;28;20184;-84
2023/08/23 09:08:41;;;;;;;8.05;3.90;;;;;;;;;;5013256;28;20188;-84
2023/08/23 09:11:07;;;;;;;6.10;3.70;;;;;;;;;;5013251;28;20205;-84
2023/08/23 09:13:34;;;;;;;4.80;3.10;;;;;;;;;;5013053;28;20184;-84
2023/08/23 09:16:00;;;;;;;5.10;4.60;;;;;;;;;;4997081;28;20177;-85
2023/08/23 09:18:26;;;;;;;4.43;2.70;;;;;;;;;;4997151;28;20177;-85
2023/08/23 09:20:52;;;;;;;6.40;3.47;;;;;;;;;;4997500;28;20185;-84
2023/08/23 09:23:18;;;;;;;3.45;2.92;;;;;;;;;;5012998;28;20173;-85
2023/08/23 09:25:44;;;;;;;5.78;3.35;;;;;;;;;;5012996;28;20181;-85
2023/08/23 09:28:13;;;;;;;7.68;3.45;;;;;;;;;;5013231;28;20178;-85
2023/08/23 09:30:39;;;;;;;6.53;3.60;;;;;;;;;;5013430;28;20208;-85
2023/08/23 09:33:05;;;;;;;4.47;2.80;;;;;;;;;;5013254;28;20169;-85
2023/08/23 09:35:32;;;;;;;4.00;3.33;;;;;;;;;;4997167;28;20173;-85
2023/08/23 09:37:58;;;;;;;5.75;3.17;;;;;;;;;;4996865;28;20177;-84
2023/08/23 09:40:27;;;;;;;4.50;3.17;;;;;;;;;;4996556;28;20235;-85
2023/08/23 09:42:54;;;;;;;7.18;3.78;;;;;;;;;;5012894;28;20279;-85
2023/08/23 09:45:21;;;;;;;3.45;2.78;;;;;;;;;;4996888;28;20278;-85
2023/08/23 09:48:14;;;;;;;6.82;3.40;;;;;;;;;;5015699;28;20169;-85
2023/08/23 09:50:40;;;;;;;5.70;3.63;;;;;;;;;;5013435;28;20185;-85
2023/08/23 09:53:09;;;;;;;4.68;2.70;;;;;;;;;;5000565;28;20208;-85
2023/08/23 09:55:35;;;;;;;4.45;3.42;;;;;;;;;;5016889;28;20268;-85
2023/08/23 09:58:01;;;;;;;3.97;2.53;;;;;;;;;;5017021;28;20186;-85
2023/08/23 10:00:28;;;;;;;3.05;2.25;;;;;;;;;;5016956;28;20181;-85
2023/08/23 10:02:57;;;;;;;3.15;2.13;;;;;;;;;;5000600;28;20204;-85
2023/08/23 10:05:25;;;;;;;3.88;2.50;;;;;;;;;;5016707;28;20227;-85
2023/08/23 10:07:53;;;;;;;4.90;3.35;;;;;;;;;;5016733;28;20267;-85
2023/08/23 10:10:19;;;;;;;4.97;2.92;;;;;;;;;;5016330;28;20178;-86
2023/08/23 10:12:47;;;;;;;6.32;3.40;;;;;;;;;;5016208;28;20205;-86
2023/08/23 10:15:18;;;;;;;5.50;3.20;;;;;;;;;;5016588;28;20169;-85
2023/08/23 10:17:45;;;;;;;4.57;3.28;;;;;;;;;;5016554;28;20181;-85
2023/08/23 10:20:12;;;;;;;4.78;3.60;;;;;;;;;;5016222;28;20180;-85
2023/08/23 10:22:41;;;;;;;5.63;3.40;;;;;;;;;;5000167;28;20242;-85
2023/08/23 10:25:19;;;;;;;7.32;3.80;;;;;;;;;;5016449;28;20189;-85
2023/08/23 10:27:46;;;;;;;7.32;4.03;;;;;;;;;;5000434;28;20188;-85
2023/08/23 10:30:15;;;;;;;6.40;4.22;;;;;;;;;;5016447;28;20212;-85
2023/08/23 10:32:44;;;;;;;5.90;4.47;;;;;;;;;;5016086;28;20209;-85
2023/08/23 10:35:23;;;;;;;4.30;3.22;;;;;;;;;;5015975;28;20261;-86
2023/08/23 10:37:51;;;;;;;4.95;3.15;;;;;;;;;;5016231;28;20177;-85
2023/08/23 10:40:19;;;;;;;5.30;3.00;;;;;;;;;;5016114;28;20169;-85
2023/08/23 10:42:47;;;;;;;4.47;2.97;;;;;;;;;;5015785;28;20256;-85
2023/08/23 10:45:16;;;;;;;4.32;2.88;;;;;;;;;;5015876;28;20212;-84
2023/08/23 10:47:42;;;;;;;5.13;3.67;;;;;;;;;;5015928;28;20178;-85
2023/08/23 10:50:09;;;;;;;5.10;3.40;;;;;;;;;;4999804;28;20185;-85
2023/08/23 10:52:35;;;;;;;4.85;3.47;;;;;;;;;;4999327;28;20220;-85
2023/08/23 10:55:02;;;;;;;4.07;3.40;;;;;;;;;;5015721;28;20177;-85
2023/08/23 10:57:28;;;;;;;5.45;3.25;;;;;;;;;;5015455;28;20173;-85
2023/08/23 10:59:54;;;;;;;6.13;3.13;;;;;;;;;;5015544;28;20177;-85
2023/08/23 11:02:20;;;;;;;9.48;4.40;;;;;;;;;;5015513;28;20184;-85
2023/08/23 11:04:47;;;;;;;3.45;3.13;;;;;;;;;;5015480;28;20280;-85
2023/08/23 11:07:14;;;;;;;4.28;2.63;;;;;;;;;;5014925;28;20412;-85
2023/08/23 11:09:40;;;;;;;4.28;2.78;;;;;;;;;;4998794;28;20419;-85
2023/08/23 11:12:07;;;;;;;5.55;2.72;;;;;;;;;;4998330;28;20489;-85
2023/08/23 11:14:33;;;;;;;4.25;2.70;;;;;;;;;;4998559;28;20456;-85
2023/08/23 11:16:59;;;;;;;4.00;2.80;;;;;;;;;;5014770;28;20474;-85
2023/08/23 11:19:25;;;;;;;3.17;2.42;;;;;;;;;;4998622;28;20479;-85
2023/08/23 11:21:52;;;;;;;7.13;3.25;;;;;;;;;;4998327;28;20415;-86
2023/08/23 11:24:18;;;;;;;7.65;3.45;;;;;;;;;;5014238;28;20407;-85
2023/08/23 11:26:47;;;;;;;4.23;3.20;;;;;;;;;;5014182;28;20414;-86
2023/08/23 11:29:13;;;;;;;4.05;2.63;;;;;;;;;;5015201;28;20235;-85
2023/08/23 11:31:39;;;;;;;4.82;3.88;;;;;;;;;;5014381;28;20430;-85
2023/08/23 11:34:06;;;;;;;5.25;3.05;;;;;;;;;;4998840;28;20228;-85
2023/08/23 11:36:33;;;;;;;4.25;2.97;;;;;;;;;;5015084;28;20169;-85
2023/08/23 11:39:06;;;;;;;4.55;4.00;;;;;;;;;;5015089;28;20173;-85
2023/08/23 11:41:35;;;;;;;5.80;3.80;;;;;;;;;;5014506;28;20419;-85
2023/08/23 11:44:05;;;;;;;6.43;3.30;;;;;;;;;;5014091;28;20522;-85
2023/08/23 11:46:34;;;;;;;5.43;2.65;;;;;;;;;;5014175;28;20469;-85
2023/08/23 11:49:03;;;;;;;4.82;2.60;;;;;;;;;;5014244;28;20425;-85
2023/08/23 11:51:50;;;;;;;3.42;2.28;;;;;;;;;;5013659;28;20513;-85
2023/08/23 11:54:16;;;;;;;5.20;2.60;;;;;;;;;;5013731;28;20403;-85
2023/08/23 11:56:45;;;;;;;5.90;3.10;;;;;;;;;;4997946;28;20403;-85
2023/08/23 11:59:14;;;;;;;4.60;2.78;;;;;;;;;;4997585;28;20415;-85
2023/08/23 12:01:44;;;;;;;5.03;2.90;;;;;;;;;;5014456;28;20181;-85
2023/08/23 12:04:11;;;;;;;6.57;2.67;;;;;;;;;;4998773;28;20438;-85
2023/08/23 12:06:37;;;;;;;3.93;1.90;;;;;;;;;;5013576;28;20419;-85
2023/08/23 12:09:03;;;;;;;2.05;1.80;;;;;;;;;;5013911;28;20173;-85
2023/08/23 12:11:32;;;;;;;3.88;1.50;;;;;;;;;;5013853;28;20215;-85
2023/08/23 12:14:04;;;;;;;3.17;1.85;;;;;;;;;;5013922;28;20461;-85
2023/08/23 12:16:30;;;;;;;5.03;2.20;;;;;;;;;;5013924;28;20438;-85
2023/08/23 12:18:57;;;;;;;4.88;1.98;;;;;;;;;;5013186;28;20403;-85
2023/08/23 12:21:23;;;;;;;3.20;1.77;;;;;;;;;;4997276;28;20469;-85
2023/08/23 12:23:49;;;;;;;3.53;1.90;;;;;;;;;;5013374;28;20419;-85
2023/08/23 12:26:15;;;;;;;2.92;1.80;;;;;;;;;;4997173;28;20462;-85
2023/08/23 12:28:41;;;;;;;3.45;1.73;;;;;;;;;;5014238;28;20173;-85
2023/08/23 12:31:07;;;;;;;4.45;1.80;;;;;;;;;;4997444;28;20233;-85
2023/08/23 12:33:33;;;;;;;4.82;2.75;;;;;;;;;;4997530;28;20204;-85
2023/08/23 12:36:01;;;;;;;3.85;1.90;;;;;;;;;;4997815;28;20414;-85
2023/08/23 12:38:27;;;;;;;4.18;1.90;;;;;;;;;;4996655;28;20415;-85
2023/08/23 12:40:53;;;;;;;3.78;1.88;;;;;;;;;;4996718;28;20476;-85
2023/08/23 12:43:20;;;;;;;4.70;2.00;;;;;;;;;;5013025;28;20442;-84
2023/08/23 12:45:46;;;;;;;4.18;2.20;;;;;;;;;;4996619;28;20461;-85
2023/08/23 12:48:12;;;;;;;5.27;2.40;;;;;;;;;;5012661;28;20430;-85
2023/08/23 12:50:38;;;;;;;3.58;2.10;;;;;;;;;;4996801;28;20427;-85
2023/08/23 12:53:04;;;;;;;3.92;1.90;;;;;;;;;;5013022;28;20426;-85
2023/08/23 12:55:32;;;;;;;2.40;1.98;;;;;;;;;;4997347;28;20249;-85
2023/08/23 12:57:58;;;;;;;3.67;2.00;;;;;;;;;;5012875;28;20457;-85
2023/08/23 13:00:24;;;;;;;4.53;1.90;;;;;;;;;;4996134;28;20456;-85
2023/08/23 13:02:50;;;;;;;3.75;1.90;;;;;;;;;;5012493;28;20415;-85
2023/08/23 13:05:17;;;;;;;2.90;1.90;;;;;;;;;;5012585;28;20417;-85
2023/08/23 13:07:43;;;;;;;3.13;1.73;;;;;;;;;;5012442;28;20494;-85
2023/08/23 13:10:09;;;;;;;4.45;1.80;;;;;;;;;;5013198;28;20185;-85
2023/08/23 13:12:36;;;;;;;3.65;1.77;;;;;;;;;;4997212;28;20214;-85
2023/08/23 13:15:02;;;;;;;3.45;1.60;;;;;;;;;;4996189;28;20408;-84
2023/08/23 13:17:28;;;;;;;3.58;1.67;;;;;;;;;;5012361;28;20414;-84
2023/08/23 13:19:54;;;;;;;3.85;1.70;;;;;;;;;;4996272;28;20434;-85
2023/08/23 13:22:22;;;;;;;4.15;1.55;;;;;;;;;;5011474;28;20513;-85
2023/08/23 13:24:49;;;;;;;4.93;1.90;;;;;;;;;;4997119;28;20181;-84
2023/08/23 13:27:15;;;;;;;4.03;1.70;;;;;;;;;;5012064;28;20407;-85
2023/08/23 13:29:44;;;;;;;4.70;2.22;;;;;;;;;;5012096;28;20418;-85
2023/08/23 13:32:10;;;;;;;4.20;1.90;;;;;;;;;;4996738;28;20537;-85
2023/08/23 13:34:36;;;;;;;3.30;1.90;;;;;;;;;;5011812;28;20429;-85
2023/08/23 13:37:07;;;;;;;4.28;2.10;;;;;;;;;;4996698;28;20177;-85
2023/08/23 13:39:33;;;;;;;3.30;1.75;;;;;;;;;;4997306;28;20196;-85
2023/08/23 13:41:59;;;;;;;3.95;1.80;;;;;;;;;;4996597;28;20181;-85
2023/08/23 13:44:25;;;;;;;5.93;1.95;;;;;;;;;;4996430;28;20233;-85
2023/08/23 13:46:51;;;;;;;4.28;1.98;;;;;;;;;;5012178;28;20423;-86
2023/08/23 13:49:17;;;;;;;4.25;1.90;;;;;;;;;;4995987;28;20408;-85
2023/08/23 13:51:44;;;;;;;4.03;1.92;;;;;;;;;;4995622;28;20439;-84
2023/08/23 13:54:10;;;;;;;3.03;1.90;;;;;;;;;;4995762;28;20411;-85
2023/08/23 13:56:39;;;;;;;4.07;1.98;;;;;;;;;;4996446;28;20236;-85
2023/08/23 13:59:05;;;;;;;2.38;1.80;;;;;;;;;;4997057;28;20189;-85
2023/08/23 14:01:31;;;;;;;2.40;1.88;;;;;;;;;;5012470;28;20420;-85
2023/08/23 14:03:57;;;;;;;4.60;1.80;;;;;;;;;;5012086;28;20506;-85
2023/08/23 14:06:26;;;;;;;5.07;2.40;;;;;;;;;;4995639;28;20554;-85
2023/08/23 14:08:52;;;;;;;2.88;1.90;;;;;;;;;;4995970;28;20503;-85
2023/08/23 14:11:18;;;;;;;5.60;2.10;;;;;;;;;;4995605;28;20435;-85
2023/08/23 14:13:44;;;;;;;5.70;2.42;;;;;;;;;;4995271;28;20418;-85
2023/08/23 14:16:10;;;;;;;4.20;2.42;;;;;;;;;;5011888;28;20411;-85
2023/08/23 14:18:37;;;;;;;5.22;2.38;;;;;;;;;;5011787;28;20415;-85
2023/08/23 14:21:04;;;;;;;3.85;2.08;;;;;;;;;;5012131;28;20411;-85
2023/08/23 14:23:33;;;;;;;3.78;1.83;;;;;;;;;;4995378;28;20442;-85
2023/08/23 14:26:03;;;;;;;3.23;2.10;;;;;;;;;;5011576;28;20408;-85
2023/08/23 14:28:32;;;;;;;3.05;1.80;;;;;;;;;;5011606;28;20415;-85
2023/08/23 14:30:58;;;;;;;4.78;2.22;;;;;;;;;;5011507;28;20477;-85
2023/08/23 14:33:24;;;;;;;4.55;2.40;;;;;;;;;;4997017;28;20496;-85
2023/08/23 14:35:52;;;;;;;4.00;2.45;;;;;;;;;;5015092;28;20406;-86
2023/08/23 14:38:19;;;;;;;6.07;2.70;;;;;;;;;;5015038;28;20403;-85
2023/08/23 14:40:45;;;;;;;6.28;2.90;;;;;;;;;;4999445;28;20416;-85